Time;durP1;ratioP1;P1;durP2;ratioP2;P2;SDS_P1;SDS_P2;PMS_P1;PMS_P2;Temp;Humidity;BMP_temperature;BMP_pressure;BME280_temperature;BME280_humidity;BME280_pressure;Samples;Min_cycle;Max_cycle;Signal;HPM_P1;HPM_P2
2021/11/16 00:13:45;;;;;;;17.67;12.50;;;23.00;61.70;;;;;;31634518;28;20063;-42
2021/11/16 00:28:47;;;;;;;17.60;12.30;;;23.00;61.80;;;;;;31633733;28;20120;-40
2021/11/16 00:43:50;;;;;;;17.08;11.02;;;22.90;62.00;;;;;;31629999;28;20048;-36
2021/11/16 00:58:52;;;;;;;15.70;11.75;;;22.90;62.00;;;;;;31627397;28;20088;-44
2021/11/16 01:13:55;;;;;;;13.70;10.40;;;22.90;62.30;;;;;;31627919;28;20131;-33
2021/11/16 01:28:59;;;;;;;17.08;12.55;;;22.90;62.30;;;;;;31625498;28;20057;-35
2021/11/16 01:44:02;;;;;;;16.25;10.88;;;22.80;62.20;;;;;;31623321;28;20068;-35
2021/11/16 01:59:05;;;;;;;12.50;9.65;;;22.80;62.30;;;;;;31621395;28;20094;-36
2021/11/16 02:14:10;;;;;;;13.98;10.38;;;22.80;62.30;;;;;;31618879;28;20096;-40
2021/11/16 02:29:12;;;;;;;12.25;9.60;;;22.80;62.40;;;;;;31618219;28;20040;-34
2021/11/16 02:44:17;;;;;;;10.85;8.52;;;22.70;62.40;;;;;;31619199;28;20064;-36
2021/11/16 02:59:19;;;;;;;46.88;35.47;;;22.70;62.50;;;;;;31616323;28;20064;-36
2021/11/16 03:14:21;;;;;;;28.73;21.95;;;22.70;61.30;;;;;;31615810;28;20045;-35
2021/11/16 03:29:26;;;;;;;26.63;19.60;;;22.60;62.00;;;;;;31627509;28;20052;-44
2021/11/16 03:44:28;;;;;;;23.88;18.45;;;22.50;62.50;;;;;;31639815;28;20076;-45
2021/11/16 03:59:31;;;;;;;21.05;17.52;;;22.50;62.80;;;;;;31639647;28;20096;-43
2021/11/16 04:14:33;;;;;;;20.63;16.33;;;22.40;63.00;;;;;;31638341;28;20072;-41
2021/11/16 04:29:35;;;;;;;20.38;16.02;;;22.30;63.10;;;;;;31635156;28;20061;-35
2021/11/16 04:44:37;;;;;;;19.00;14.50;;;22.30;63.40;;;;;;31555257;28;20117;-45
2021/11/16 05:15:17;;;;;;;16.13;12.77;;;23.00;63.40;;;;;;31547336;28;20060;-35
2021/11/16 05:30:26;;;;;;;16.65;12.93;;;23.00;63.00;;;;;;31626466;28;20055;-36
2021/11/16 05:45:28;;;;;;;14.00;11.90;;;22.90;63.00;;;;;;31626389;28;20045;-44
2021/11/16 06:00:31;;;;;;;14.40;11.70;;;22.70;62.80;;;;;;31617903;28;20071;-49
2021/11/16 06:15:33;;;;;;;50.47;20.70;;;22.70;63.00;;;;;;31619038;28;20051;-43
2021/11/16 06:30:35;;;;;;;43.70;18.95;;;22.50;62.80;;;;;;31617370;28;20083;-48
2021/11/16 06:45:37;;;;;;;40.85;17.38;;;22.30;63.20;;;;;;31615854;28;20488;-43
2021/11/16 07:00:39;;;;;;;33.95;17.25;;;22.20;63.50;;;;;;31619137;28;20040;-44
2021/11/16 07:15:41;;;;;;;35.50;16.27;;;22.20;63.30;;;;;;31641567;28;20048;-48
2021/11/16 07:30:43;;;;;;;30.10;15.23;;;22.60;62.40;;;;;;31642669;28;20054;-36
2021/11/16 07:45:52;;;;;;;106.63;84.63;;;22.80;61.80;;;;;;31635827;28;20045;-40
2021/11/16 08:00:55;;;;;;;54.83;38.03;;;22.50;55.20;;;;;;31625648;28;20041;-38
2021/11/16 08:16:10;;;;;;;56.53;34.25;;;22.40;51.90;;;;;;31673865;28;20055;-38
2021/11/16 08:31:13;;;;;;;101.75;79.03;;;22.30;52.30;;;;;;31634885;28;20045;-44
2021/11/16 08:46:17;;;;;;;49.30;37.17;;;22.00;49.90;;;;;;31600680;28;20055;-49
2021/11/16 09:01:22;;;;;;;47.75;34.45;;;21.90;48.10;;;;;;31508002;28;20413;-44
2021/11/16 09:16:30;;;;;;;26.83;20.02;;;22.40;52.70;;;;;;31624550;28;20059;-45
2021/11/16 09:31:52;;;;;;;22.52;16.00;;;22.40;51.20;;;;;;31611265;28;20441;-44
2021/11/16 09:47:02;;;;;;;25.85;14.68;;;22.30;47.10;;;;;;31490762;28;20052;-38
2021/11/16 10:02:05;;;;;;;17.90;13.37;;;22.10;46.20;;;;;;31488331;28;20040;-39
2021/11/16 10:17:07;;;;;;;18.40;13.35;;;22.20;49.30;;;;;;31255687;28;10000039;-36
2021/11/16 10:32:20;;;;;;;22.10;12.07;;;22.20;50.50;;;;;;31736019;28;20055;-39
2021/11/16 10:47:34;;;;;;;33.38;27.95;;;22.20;51.60;;;;;;31765306;28;20040;-48
2021/11/16 11:02:36;;;;;;;38.13;24.48;;;22.00;46.60;;;;;;31694052;28;20040;-46
2021/11/16 11:17:38;;;;;;;27.85;19.60;;;21.90;46.60;;;;;;31662130;28;20037;-38
2021/11/16 11:32:43;;;;;;;22.70;14.55;;;22.30;49.50;;;;;;31590450;28;20055;-41
2021/11/16 11:47:46;;;;;;;20.55;12.13;;;22.40;49.60;;;;;;31501725;28;20056;-41
2021/11/16 12:02:48;;;;;;;19.00;12.10;;;22.50;50.30;;;;;;31501116;28;20102;-42
2021/11/16 12:17:53;;;;;;;19.25;11.52;;;22.50;50.90;;;;;;31638418;28;20040;-36
2021/11/16 12:32:55;;;;;;;15.90;11.13;;;22.40;51.30;;;;;;31760596;28;20052;-41
2021/11/16 12:47:58;;;;;;;15.07;9.48;;;22.40;51.70;;;;;;31753502;28;20059;-43
2021/11/16 13:03:02;;;;;;;54.25;37.40;;;22.30;52.00;;;;;;31748206;28;20131;-51
2021/11/16 13:18:10;;;;;;;34.25;24.25;;;21.90;48.00;;;;;;31728621;28;20074;-46
2021/11/16 13:34:01;;;;;;;28.33;20.15;;;21.80;47.40;;;;;;31617877;28;20189;-38
2021/11/16 13:49:04;;;;;;;22.93;16.77;;;22.20;49.20;;;;;;31600003;28;20095;-43
2021/11/16 14:04:09;;;;;;;22.88;15.40;;;22.60;49.80;;;;;;31611268;28;20051;-46
2021/11/16 14:19:11;;;;;;;20.67;14.45;;;22.70;51.00;;;;;;31689762;28;20040;-43
2021/11/16 14:34:19;;;;;;;21.13;13.05;;;22.60;52.20;;;;;;31740663;28;20052;-42
2021/11/16 14:49:39;;;;;;;18.60;12.47;;;22.60;52.80;;;;;;31735012;28;22115;-37
2021/11/16 15:04:43;;;;;;;22.75;11.68;;;22.50;53.00;;;;;;31726282;28;20064;-42
2021/11/16 15:19:58;;;;;;;25.15;11.63;;;22.40;53.90;;;;;;31747244;28;20047;-37
2021/11/16 15:35:00;;;;;;;21.30;11.15;;;22.30;53.60;;;;;;31762538;28;20145;-48
2021/11/16 16:06:01;;;;;;;18.48;9.18;;;22.30;54.20;;;;;;31747032;28;20052;-37
2021/11/16 16:21:10;;;;;;;24.75;8.70;;;22.70;54.40;;;;;;31654556;28;20044;-35
2021/11/16 16:36:12;;;;;;;18.17;8.00;;;22.90;54.80;;;;;;31583377;28;20076;-46
2021/11/16 16:51:15;;;;;;;14.60;8.40;;;22.90;55.30;;;;;;31628673;28;20099;-47
2021/11/16 17:06:17;;;;;;;17.63;8.75;;;22.80;55.80;;;;;;31643125;28;20037;-42
2021/11/16 17:21:19;;;;;;;14.98;8.20;;;22.90;56.20;;;;;;31627588;28;20544;-35
2021/11/16 17:36:21;;;;;;;10.27;6.15;;;22.90;56.30;;;;;;31583639;28;20070;-37
2021/11/16 17:51:24;;;;;;;17.42;7.05;;;22.80;57.10;;;;;;31583939;28;20101;-33
2021/11/16 18:21:29;;;;;;;11.73;6.00;;;22.40;57.00;;;;;;31594163;28;20033;-42
2021/11/16 18:36:32;;;;;;;24.73;7.55;;;22.30;57.40;;;;;;31311731;28;10000037;-34
2021/11/16 18:51:35;;;;;;;14.80;6.35;;;22.30;58.60;;;;;;31736848;28;20055;-44
2021/11/16 19:06:37;;;;;;;19.20;6.60;;;22.50;58.20;;;;;;31705474;28;20056;-34
2021/11/16 19:21:39;;;;;;;8.50;5.90;;;22.60;58.50;;;;;;31556662;28;20045;-36
2021/11/16 19:36:41;;;;;;;9.70;4.97;;;22.70;58.80;;;;;;31640971;28;20056;-37
2021/11/16 19:51:44;;;;;;;19.40;5.72;;;22.70;58.20;;;;;;31637546;28;20082;-35
2021/11/16 20:06:46;;;;;;;11.38;4.95;;;22.70;58.90;;;;;;31629247;28;20083;-36
2021/11/16 20:21:48;;;;;;;12.07;4.95;;;22.60;59.00;;;;;;31624991;28;20060;-34
2021/11/16 20:36:53;;;;;;;8.38;4.53;;;22.50;59.20;;;;;;31629644;28;20068;-35
2021/11/16 21:07:15;;;;;;;8.05;3.95;;;22.40;59.30;;;;;;31625387;28;20041;-41
2021/11/16 21:22:18;;;;;;;5.32;3.83;;;22.40;59.50;;;;;;31621470;28;20064;-44
2021/11/16 21:37:20;;;;;;;3.88;3.40;;;22.40;59.70;;;;;;31623957;28;20079;-35
2021/11/16 21:52:22;;;;;;;6.40;3.28;;;22.40;59.70;;;;;;31623612;28;20060;-35
2021/11/16 22:07:38;;;;;;;4.18;3.33;;;22.40;59.90;;;;;;31623056;28;20036;-35
2021/11/16 22:22:42;;;;;;;6.25;2.88;;;22.40;60.10;;;;;;31620874;28;20041;-36
2021/11/16 22:37:44;;;;;;;7.22;3.33;;;22.40;60.40;;;;;;31618769;28;20108;-36
2021/11/16 22:52:47;;;;;;;3.55;2.90;;;22.40;60.70;;;;;;31618592;28;20045;-37
